sensor_id;sensor_type;location;lat;lon;timestamp;pressure;altitude;pressure_sealevel;temperature;humidity
54978;BME280;40873;47.522;19.106;2023-11-19T00:01:10;100950.53;;;1.82;100.00
54978;BME280;40873;47.522;19.106;2023-11-19T00:03:57;100948.84;;;1.78;100.00
54978;BME280;40873;47.522;19.106;2023-11-19T00:06:24;100949.66;;;1.80;100.00
54978;BME280;40873;47.522;19.106;2023-11-19T00:08:52;100940.19;;;1.78;100.00
54978;BME280;40873;47.522;19.106;2023-11-19T00:11:19;100946.28;;;1.77;100.00
54978;BME280;40873;47.522;19.106;2023-11-19T00:13:46;100937.59;;;1.78;100.00
54978;BME280;40873;47.522;19.106;2023-11-19T00:16:12;100934.13;;;1.77;100.00
54978;BME280;40873;47.522;19.106;2023-11-19T00:18:40;100930.66;;;1.77;100.00
54978;BME280;40873;47.522;19.106;2023-11-19T00:21:06;100927.22;;;1.73;100.00
54978;BME280;40873;47.522;19.106;2023-11-19T00:23:36;100915.09;;;1.74;100.00
54978;BME280;40873;47.522;19.106;2023-11-19T00:26:03;100926.38;;;1.73;100.00
54978;BME280;40873;47.522;19.106;2023-11-19T00:28:33;100936.81;;;1.71;100.00
54978;BME280;40873;47.522;19.106;2023-11-19T00:31:00;100947.22;;;1.71;100.00
54978;BME280;40873;47.522;19.106;2023-11-19T00:33:28;100943.81;;;1.68;100.00
54978;BME280;40873;47.522;19.106;2023-11-19T00:35:56;100943.75;;;1.71;100.00
54978;BME280;40873;47.522;19.106;2023-11-19T00:38:23;100935.09;;;1.70;100.00
54978;BME280;40873;47.522;19.106;2023-11-19T00:40:49;100935.09;;;1.70;100.00
54978;BME280;40873;47.522;19.106;2023-11-19T00:43:17;100940.31;;;1.70;100.00
54978;BME280;40873;47.522;19.106;2023-11-19T00:45:44;100938.50;;;1.75;100.00
54978;BME280;40873;47.522;19.106;2023-11-19T00:48:11;100937.63;;;1.75;100.00
54978;BME280;40873;47.522;19.106;2023-11-19T00:50:38;100935.88;;;1.77;100.00
54978;BME280;40873;47.522;19.106;2023-11-19T00:53:12;100934.16;;;1.76;100.00
54978;BME280;40873;47.522;19.106;2023-11-19T00:55:39;100931.59;;;1.74;100.00
54978;BME280;40873;47.522;19.106;2023-11-19T00:58:09;100922.09;;;1.70;100.00
54978;BME280;40873;47.522;19.106;2023-11-19T01:00:35;100921.25;;;1.68;100.00
54978;BME280;40873;47.522;19.106;2023-11-19T01:03:02;100923.91;;;1.65;100.00
54978;BME280;40873;47.522;19.106;2023-11-19T01:05:30;100922.22;;;1.62;100.00
54978;BME280;40873;47.522;19.106;2023-11-19T01:07:57;100911.84;;;1.61;100.00
54978;BME280;40873;47.522;19.106;2023-11-19T01:10:24;100917.03;;;1.59;100.00
54978;BME280;40873;47.522;19.106;2023-11-19T01:12:52;100926.59;;;1.57;100.00
54978;BME280;40873;47.522;19.106;2023-11-19T01:15:19;100932.66;;;1.58;100.00
54978;BME280;40873;47.522;19.106;2023-11-19T01:17:47;100938.84;;;1.51;100.00
54978;BME280;40873;47.522;19.106;2023-11-19T01:20:17;100932.78;;;1.50;100.00
54978;BME280;40873;47.522;19.106;2023-11-19T01:22:44;100929.25;;;1.54;100.00
54978;BME280;40873;47.522;19.106;2023-11-19T01:25:11;100929.28;;;1.51;100.00
54978;BME280;40873;47.522;19.106;2023-11-19T01:27:38;100914.63;;;1.47;100.00
54978;BME280;40873;47.522;19.106;2023-11-19T01:30:06;100924.16;;;1.45;100.00
54978;BME280;40873;47.522;19.106;2023-11-19T01:32:36;100921.56;;;1.45;100.00
54978;BME280;40873;47.522;19.106;2023-11-19T01:35:03;100919.00;;;1.44;100.00
54978;BME280;40873;47.522;19.106;2023-11-19T01:37:31;100916.41;;;1.44;100.00
54978;BME280;40873;47.522;19.106;2023-11-19T01:39:59;100924.19;;;1.44;100.00
54978;BME280;40873;47.522;19.106;2023-11-19T01:42:26;100917.34;;;1.38;100.00
54978;BME280;40873;47.522;19.106;2023-11-19T01:45:00;100916.50;;;1.36;100.00
54978;BME280;40873;47.522;19.106;2023-11-19T01:47:28;100912.13;;;1.41;100.00
54978;BME280;40873;47.522;19.106;2023-11-19T01:49:57;100915.69;;;1.31;100.00
54978;BME280;40873;47.522;19.106;2023-11-19T01:52:25;100908.81;;;1.28;100.00
54978;BME280;40873;47.522;19.106;2023-11-19T01:54:53;100900.16;;;1.28;100.00
54978;BME280;40873;47.522;19.106;2023-11-19T01:57:22;100891.47;;;1.29;100.00
54978;BME280;40873;47.522;19.106;2023-11-19T01:59:51;100883.69;;;1.27;100.00
54978;BME280;40873;47.522;19.106;2023-11-19T02:02:19;100876.75;;;1.28;100.00
54978;BME280;40873;47.522;19.106;2023-11-19T02:04:49;100876.81;;;1.23;100.00
54978;BME280;40873;47.522;19.106;2023-11-19T02:07:18;100870.72;;;1.24;100.00
54978;BME280;40873;47.522;19.106;2023-11-19T02:09:45;100875.06;;;1.25;100.00
54978;BME280;40873;47.522;19.106;2023-11-19T02:12:12;100869.03;;;1.23;100.00
54978;BME280;40873;47.522;19.106;2023-11-19T02:14:42;100870.72;;;1.24;100.00
54978;BME280;40873;47.522;19.106;2023-11-19T02:17:28;100875.06;;;1.27;100.00
54978;BME280;40873;47.522;19.106;2023-11-19T02:19:55;100882.88;;;1.25;100.00
54978;BME280;40873;47.522;19.106;2023-11-19T02:22:22;100882.00;;;1.25;100.00
54978;BME280;40873;47.522;19.106;2023-11-19T02:24:51;100879.47;;;1.20;100.00
54978;BME280;40873;47.522;19.106;2023-11-19T02:29:53;100862.13;;;1.21;100.00
54978;BME280;40873;47.522;19.106;2023-11-19T02:32:20;100856.09;;;1.19;100.00
54978;BME280;40873;47.522;19.106;2023-11-19T02:34:47;100864.78;;;1.16;100.00
54978;BME280;40873;47.522;19.106;2023-11-19T02:37:14;100871.75;;;1.14;100.00
54978;BME280;40873;47.522;19.106;2023-11-19T02:39:41;100867.25;;;1.27;100.00
54978;BME280;40873;47.522;19.106;2023-11-19T02:42:08;100862.59;;;1.49;100.00
54978;BME280;40873;47.522;19.106;2023-11-19T02:44:36;100858.06;;;1.60;100.00
54978;BME280;40873;47.522;19.106;2023-11-19T02:47:05;100850.38;;;1.52;100.00
54978;BME280;40873;47.522;19.106;2023-11-19T02:49:34;100850.59;;;1.38;100.00
54978;BME280;40873;47.522;19.106;2023-11-19T02:52:03;100847.88;;;1.48;100.00
54978;BME280;40873;47.522;19.106;2023-11-19T02:54:32;100838.56;;;1.33;100.00
54978;BME280;40873;47.522;19.106;2023-11-19T02:57:01;100838.63;;;1.28;100.00
54978;BME280;40873;47.522;19.106;2023-11-19T02:59:30;100850.00;;;1.21;100.00
54978;BME280;40873;47.522;19.106;2023-11-19T03:02:06;100843.09;;;1.20;100.00
54978;BME280;40873;47.522;19.106;2023-11-19T03:04:33;100834.16;;;1.36;100.00
54978;BME280;40873;47.522;19.106;2023-11-19T03:07:01;100827.97;;;1.47;100.00
54978;BME280;40873;47.522;19.106;2023-11-19T03:09:28;100832.25;;;1.49;100.00
54978;BME280;40873;47.522;19.106;2023-11-19T03:11:56;100827.13;;;1.46;100.00
54978;BME280;40873;47.522;19.106;2023-11-19T03:14:26;100822.84;;;1.41;100.00
54978;BME280;40873;47.522;19.106;2023-11-19T03:16:53;100823.84;;;1.32;100.00
54978;BME280;40873;47.522;19.106;2023-11-19T03:19:20;100811.59;;;1.40;100.00
54978;BME280;40873;47.522;19.106;2023-11-19T03:21:50;100813.44;;;1.32;100.00
54978;BME280;40873;47.522;19.106;2023-11-19T03:24:17;100810.09;;;1.25;100.00
54978;BME280;40873;47.522;19.106;2023-11-19T03:26:48;100816.16;;;1.24;100.00
54978;BME280;40873;47.522;19.106;2023-11-19T03:29:16;100811.81;;;1.25;100.00
54978;BME280;40873;47.522;19.106;2023-11-19T03:31:44;100816.16;;;1.26;100.00
54978;BME280;40873;47.522;19.106;2023-11-19T03:34:14;100811.78;;;1.28;100.00
54978;BME280;40873;47.522;19.106;2023-11-19T03:36:41;100823.03;;;1.28;100.00
54978;BME280;40873;47.522;19.106;2023-11-19T03:39:08;100809.22;;;1.26;100.00
54978;BME280;40873;47.522;19.106;2023-11-19T03:41:35;100786.66;;;1.28;100.00
54978;BME280;40873;47.522;19.106;2023-11-19T03:44:05;100782.34;;;1.27;100.00
54978;BME280;40873;47.522;19.106;2023-11-19T03:46:32;100776.25;;;1.28;100.00
54978;BME280;40873;47.522;19.106;2023-11-19T03:48:59;100771.81;;;1.35;100.00
54978;BME280;40873;47.522;19.106;2023-11-19T03:51:26;100764.03;;;1.33;100.00
54978;BME280;40873;47.522;19.106;2023-11-19T03:53:53;100760.59;;;1.33;100.00
54978;BME280;40873;47.522;19.106;2023-11-19T03:56:20;100759.44;;;1.49;100.00
54978;BME280;40873;47.522;19.106;2023-11-19T03:58:48;100755.13;;;1.48;100.00
54978;BME280;40873;47.522;19.106;2023-11-19T04:01:15;100755.16;;;1.47;100.00
54978;BME280;40873;47.522;19.106;2023-11-19T04:03:42;100748.28;;;1.43;100.00
54978;BME280;40873;47.522;19.106;2023-11-19T04:06:12;100749.19;;;1.42;100.00
54978;BME280;40873;47.522;19.106;2023-11-19T04:08:39;100748.31;;;1.41;100.00
54978;BME280;40873;47.522;19.106;2023-11-19T04:11:06;100749.13;;;1.46;100.00
54978;BME280;40873;47.522;19.106;2023-11-19T04:13:33;100736.97;;;1.45;100.00
54978;BME280;40873;47.522;19.106;2023-11-19T04:16:00;100735.25;;;1.44;100.00
54978;BME280;40873;47.522;19.106;2023-11-19T04:18:28;100733.41;;;1.51;100.00
54978;BME280;40873;47.522;19.106;2023-11-19T04:20:55;100744.72;;;1.48;100.00
54978;BME280;40873;47.522;19.106;2023-11-19T04:23:22;100747.38;;;1.47;100.00
54978;BME280;40873;47.522;19.106;2023-11-19T04:25:51;100738.81;;;1.38;100.00
54978;BME280;40873;47.522;19.106;2023-11-19T04:28:18;100722.38;;;1.36;100.00
54978;BME280;40873;47.522;19.106;2023-11-19T04:30:45;100719.09;;;1.27;100.00
54978;BME280;40873;47.522;19.106;2023-11-19T04:33:12;100728.72;;;1.20;100.00
54978;BME280;40873;47.522;19.106;2023-11-19T04:35:39;100717.59;;;1.10;100.00
54978;BME280;40873;47.522;19.106;2023-11-19T04:38:06;100721.97;;;1.08;100.00
54978;BME280;40873;47.522;19.106;2023-11-19T04:40:33;100727.19;;;1.07;100.00
54978;BME280;40873;47.522;19.106;2023-11-19T04:43:00;100741.97;;;1.05;100.00
54978;BME280;40873;47.522;19.106;2023-11-19T04:45:28;100746.28;;;1.06;100.00
54978;BME280;40873;47.522;19.106;2023-11-19T04:47:54;100752.38;;;1.02;100.00
54978;BME280;40873;47.522;19.106;2023-11-19T04:50:21;100760.16;;;1.03;100.00
54978;BME280;40873;47.522;19.106;2023-11-19T04:52:48;100761.84;;;1.07;100.00
54978;BME280;40873;47.522;19.106;2023-11-19T04:55:15;100767.03;;;1.07;100.00
54978;BME280;40873;47.522;19.106;2023-11-19T04:57:42;100770.44;;;1.11;100.00
54978;BME280;40873;47.522;19.106;2023-11-19T05:00:12;100769.59;;;1.09;100.00
54978;BME280;40873;47.522;19.106;2023-11-19T05:02:43;100757.44;;;1.11;100.00
54978;BME280;40873;47.522;19.106;2023-11-19T05:05:11;100754.66;;;1.23;100.00
54978;BME280;40873;47.522;19.106;2023-11-19T05:07:38;100752.78;;;1.31;100.00
54978;BME280;40873;47.522;19.106;2023-11-19T05:10:06;100751.09;;;1.29;100.00
54978;BME280;40873;47.522;19.106;2023-11-19T05:12:33;100759.72;;;1.31;100.00
54978;BME280;40873;47.522;19.106;2023-11-19T05:15:00;100755.38;;;1.31;100.00
54978;BME280;40873;47.522;19.106;2023-11-19T05:17:27;100760.59;;;1.31;100.00
54978;BME280;40873;47.522;19.106;2023-11-19T05:19:55;100764.91;;;1.34;100.00
54978;BME280;40873;47.522;19.106;2023-11-19T05:22:22;100762.34;;;1.32;100.00
54978;BME280;40873;47.522;19.106;2023-11-19T05:24:49;100757.09;;;1.34;100.00
54978;BME280;40873;47.522;19.106;2023-11-19T05:27:16;100746.66;;;1.35;100.00
54978;BME280;40873;47.522;19.106;2023-11-19T05:29:43;100751.75;;;1.43;100.00
54978;BME280;40873;47.522;19.106;2023-11-19T05:32:10;100747.44;;;1.42;100.00
54978;BME280;40873;47.522;19.106;2023-11-19T05:34:38;100750.06;;;1.39;100.00
54978;BME280;40873;47.522;19.106;2023-11-19T05:37:18;100735.38;;;1.36;100.00
54978;BME280;40873;47.522;19.106;2023-11-19T05:39:45;100744.16;;;1.29;100.00
54978;BME280;40873;47.522;19.106;2023-11-19T05:42:12;100746.84;;;1.25;100.00
54978;BME280;40873;47.522;19.106;2023-11-19T05:44:42;100747.72;;;1.24;100.00
54978;BME280;40873;47.522;19.106;2023-11-19T05:47:09;100748.59;;;1.23;100.00
54978;BME280;40873;47.522;19.106;2023-11-19T05:49:36;100732.13;;;1.24;100.00
54978;BME280;40873;47.522;19.106;2023-11-19T05:52:03;100739.13;;;1.20;100.00
54978;BME280;40873;47.522;19.106;2023-11-19T05:54:35;100743.47;;;1.20;100.00
54978;BME280;40873;47.522;19.106;2023-11-19T05:57:05;100747.88;;;1.15;100.00
54978;BME280;40873;47.522;19.106;2023-11-19T05:59:32;100740.91;;;1.17;100.00
54978;BME280;40873;47.522;19.106;2023-11-19T06:01:59;100741.78;;;1.16;100.00
54978;BME280;40873;47.522;19.106;2023-11-19T06:04:26;100741.00;;;1.12;100.00
54978;BME280;40873;47.522;19.106;2023-11-19T06:06:53;100754.03;;;1.07;100.00
54978;BME280;40873;47.522;19.106;2023-11-19T06:09:21;100759.16;;;1.14;100.00
54978;BME280;40873;47.522;19.106;2023-11-19T06:11:51;100739.06;;;1.23;100.00
54978;BME280;40873;47.522;19.106;2023-11-19T06:14:18;100736.47;;;1.23;100.00
54978;BME280;40873;47.522;19.106;2023-11-19T06:16:45;100727.88;;;1.20;100.00
54978;BME280;40873;47.522;19.106;2023-11-19T06:19:12;100728.63;;;1.25;100.00
54978;BME280;40873;47.522;19.106;2023-11-19T06:21:39;100723.44;;;1.26;100.00
54978;BME280;40873;47.522;19.106;2023-11-19T06:24:06;100721.63;;;1.30;100.00
54978;BME280;40873;47.522;19.106;2023-11-19T06:26:35;100713.03;;;1.26;100.00
54978;BME280;40873;47.522;19.106;2023-11-19T06:29:02;100705.13;;;1.34;100.00
54978;BME280;40873;47.522;19.106;2023-11-19T06:31:29;100714.56;;;1.40;100.00
54978;BME280;40873;47.522;19.106;2023-11-19T06:33:56;100704.06;;;1.44;100.00
54978;BME280;40873;47.522;19.106;2023-11-19T06:36:23;100710.22;;;1.40;100.00
54978;BME280;40873;47.522;19.106;2023-11-19T06:38:50;100710.09;;;1.45;100.00
54978;BME280;40873;47.522;19.106;2023-11-19T06:41:17;100699.59;;;1.51;100.00
54978;BME280;40873;47.522;19.106;2023-11-19T06:43:44;100696.91;;;1.57;100.00
54978;BME280;40873;47.522;19.106;2023-11-19T06:46:15;100701.31;;;1.53;100.00
54978;BME280;40873;47.522;19.106;2023-11-19T06:48:42;100702.16;;;1.52;100.00
54978;BME280;40873;47.522;19.106;2023-11-19T06:51:11;100702.16;;;1.54;100.00
54978;BME280;40873;47.522;19.106;2023-11-19T06:53:38;100703.91;;;1.53;100.00
54978;BME280;40873;47.522;19.106;2023-11-19T06:56:24;100692.38;;;1.68;100.00
54978;BME280;40873;47.522;19.106;2023-11-19T06:58:51;100704.53;;;1.68;100.00
54978;BME280;40873;47.522;19.106;2023-11-19T07:01:18;100701.56;;;1.86;100.00
54978;BME280;40873;47.522;19.106;2023-11-19T07:03:46;100702.44;;;1.85;100.00
54978;BME280;40873;47.522;19.106;2023-11-19T07:06:14;100692.94;;;1.84;100.00
54978;BME280;40873;47.522;19.106;2023-11-19T07:08:42;100697.28;;;1.83;100.00
54978;BME280;40873;47.522;19.106;2023-11-19T07:11:15;100700.81;;;1.81;100.00
54978;BME280;40873;47.522;19.106;2023-11-19T07:13:44;100702.50;;;1.83;100.00
54978;BME280;40873;47.522;19.106;2023-11-19T07:16:14;100697.28;;;1.83;100.00
54978;BME280;40873;47.522;19.106;2023-11-19T07:18:41;100698.03;;;1.90;100.00
54978;BME280;40873;47.522;19.106;2023-11-19T07:21:10;100696.97;;;1.99;100.00
54978;BME280;40873;47.522;19.106;2023-11-19T07:23:37;100701.28;;;2.00;100.00
54978;BME280;40873;47.522;19.106;2023-11-19T07:26:05;100712.72;;;1.92;100.00
54978;BME280;40873;47.522;19.106;2023-11-19T07:28:35;100702.16;;;2.00;100.00
54978;BME280;40873;47.522;19.106;2023-11-19T07:31:02;100711.59;;;2.06;100.00
54978;BME280;40873;47.522;19.106;2023-11-19T07:33:29;100707.25;;;2.06;100.00
54978;BME280;40873;47.522;19.106;2023-11-19T07:35:56;100691.81;;;1.97;100.00
54978;BME280;40873;47.522;19.106;2023-11-19T07:38:23;100701.25;;;2.01;100.00
54978;BME280;40873;47.522;19.106;2023-11-19T07:40:50;100712.72;;;1.92;100.00
54978;BME280;40873;47.522;19.106;2023-11-19T07:43:20;100720.63;;;1.88;100.00
54978;BME280;40873;47.522;19.106;2023-11-19T07:45:47;100722.97;;;2.00;100.00
54978;BME280;40873;47.522;19.106;2023-11-19T07:48:14;100736.75;;;2.05;100.00
54978;BME280;40873;47.522;19.106;2023-11-19T07:50:42;100726.41;;;2.02;100.00
54978;BME280;40873;47.522;19.106;2023-11-19T07:53:09;100715.06;;;2.06;100.00
54978;BME280;40873;47.522;19.106;2023-11-19T07:55:36;100714.00;;;2.16;100.00
54978;BME280;40873;47.522;19.106;2023-11-19T07:58:08;100699.03;;;2.26;100.00
54978;BME280;40873;47.522;19.106;2023-11-19T08:00:35;100702.22;;;2.40;100.00
54978;BME280;40873;47.522;19.106;2023-11-19T08:03:02;100683.19;;;2.37;100.00
54978;BME280;40873;47.522;19.106;2023-11-19T08:05:30;100677.25;;;2.30;100.00
54978;BME280;40873;47.522;19.106;2023-11-19T08:07:58;100674.47;;;2.39;100.00
54978;BME280;40873;47.522;19.106;2023-11-19T08:10:25;100664.03;;;2.39;100.00
54978;BME280;40873;47.522;19.106;2023-11-19T08:12:52;100661.34;;;2.44;100.00
54978;BME280;40873;47.522;19.106;2023-11-19T08:15:18;100643.72;;;2.16;100.00
54978;BME280;40873;47.522;19.106;2023-11-19T08:17:58;100646.94;;;2.28;100.00
54978;BME280;40873;47.522;19.106;2023-11-19T08:20:25;100639.91;;;1.91;100.00
54978;BME280;40873;47.522;19.106;2023-11-19T08:22:52;100635.72;;;1.84;100.00
54978;BME280;40873;47.522;19.106;2023-11-19T08:25:19;100606.06;;;1.91;100.00
54978;BME280;40873;47.522;19.106;2023-11-19T08:27:46;100591.22;;;1.96;100.00
54978;BME280;40873;47.522;19.106;2023-11-19T08:30:13;100621.59;;;1.96;100.00
54978;BME280;40873;47.522;19.106;2023-11-19T08:32:40;100636.47;;;1.87;100.00
54978;BME280;40873;47.522;19.106;2023-11-19T08:35:08;100638.75;;;2.04;100.00
54978;BME280;40873;47.522;19.106;2023-11-19T08:37:35;100637.66;;;2.14;100.00
54978;BME280;40873;47.522;19.106;2023-11-19T08:40:04;100640.13;;;2.20;100.00
54978;BME280;40873;47.522;19.106;2023-11-19T08:42:31;100620.84;;;2.31;100.00
54978;BME280;40873;47.522;19.106;2023-11-19T08:44:58;100616.38;;;2.36;100.00
54978;BME280;40873;47.522;19.106;2023-11-19T08:47:25;100621.91;;;2.20;100.00
54978;BME280;40873;47.522;19.106;2023-11-19T08:49:52;100616.28;;;2.40;100.00
54978;BME280;40873;47.522;19.106;2023-11-19T08:52:26;100631.72;;;2.48;100.00
54978;BME280;40873;47.522;19.106;2023-11-19T08:54:52;100644.91;;;2.40;100.00
54978;BME280;40873;47.522;19.106;2023-11-19T08:57:20;100632.41;;;2.56;100.00
54978;BME280;40873;47.522;19.106;2023-11-19T08:59:47;100624.63;;;2.55;100.00
54978;BME280;40873;47.522;19.106;2023-11-19T09:02:14;100614.75;;;2.69;100.00
54978;BME280;40873;47.522;19.106;2023-11-19T09:04:41;100635.47;;;2.73;100.00
54978;BME280;40873;47.522;19.106;2023-11-19T09:07:08;100646.72;;;2.75;100.00
54978;BME280;40873;47.522;19.106;2023-11-19T09:09:36;100645.31;;;2.61;100.00
54978;BME280;40873;47.522;19.106;2023-11-19T09:12:03;100634.59;;;2.36;100.00
54978;BME280;40873;47.522;19.106;2023-11-19T09:14:30;100642.09;;;2.50;100.00
54978;BME280;40873;47.522;19.106;2023-11-19T09:16:58;100641.22;;;2.51;100.00
54978;BME280;40873;47.522;19.106;2023-11-19T09:19:25;100652.03;;;2.71;100.00
54978;BME280;40873;47.522;19.106;2023-11-19T09:21:53;100657.31;;;2.68;100.00
54978;BME280;40873;47.522;19.106;2023-11-19T09:24:20;100659.03;;;2.69;100.00
54978;BME280;40873;47.522;19.106;2023-11-19T09:26:50;100636.06;;;2.47;100.00
54978;BME280;40873;47.522;19.106;2023-11-19T09:29:17;100647.88;;;2.62;100.00
54978;BME280;40873;47.522;19.106;2023-11-19T09:31:44;100638.84;;;2.79;100.00
54978;BME280;40873;47.522;19.106;2023-11-19T09:34:12;100644.38;;;2.65;100.00
54978;BME280;40873;47.522;19.106;2023-11-19T09:36:39;100631.03;;;2.77;100.00
54978;BME280;40873;47.522;19.106;2023-11-19T09:39:11;100632.53;;;2.87;100.00
54978;BME280;40873;47.522;19.106;2023-11-19T09:41:39;100623.72;;;2.93;100.00
54978;BME280;40873;47.522;19.106;2023-11-19T09:44:08;100622.97;;;2.88;100.00
54978;BME280;40873;47.522;19.106;2023-11-19T09:46:36;100622.84;;;2.94;100.00
54978;BME280;40873;47.522;19.106;2023-11-19T09:49:04;100614.63;;;2.73;100.00
54978;BME280;40873;47.522;19.106;2023-11-19T09:51:31;100610.34;;;2.72;100.00
54978;BME280;40873;47.522;19.106;2023-11-19T09:53:58;100607.38;;;2.86;100.00
54978;BME280;40873;47.522;19.106;2023-11-19T09:56:27;100604.00;;;2.83;100.00
54978;BME280;40873;47.522;19.106;2023-11-19T09:58:56;100595.31;;;2.82;100.00
54978;BME280;40873;47.522;19.106;2023-11-19T10:01:23;100587.34;;;2.88;100.00
54978;BME280;40873;47.522;19.106;2023-11-19T10:03:55;100585.69;;;2.84;100.00
54978;BME280;40873;47.522;19.106;2023-11-19T10:06:24;100583.44;;;3.05;100.00
54978;BME280;40873;47.522;19.106;2023-11-19T10:08:53;100586.03;;;3.06;100.00
54978;BME280;40873;47.522;19.106;2023-11-19T10:11:20;100584.34;;;3.03;100.00
54978;BME280;40873;47.522;19.106;2023-11-19T10:13:48;100557.88;;;3.19;100.00
54978;BME280;40873;47.522;19.106;2023-11-19T10:16:17;100547.28;;;3.25;100.00
54978;BME280;40873;47.522;19.106;2023-11-19T10:18:49;100553.56;;;3.18;100.00
54978;BME280;40873;47.522;19.106;2023-11-19T10:21:18;100551.91;;;3.15;100.00
54978;BME280;40873;47.522;19.106;2023-11-19T10:24:05;100562.28;;;3.17;100.00
54978;BME280;40873;47.522;19.106;2023-11-19T10:26:36;100555.53;;;3.10;100.00
54978;BME280;40873;47.522;19.106;2023-11-19T10:29:04;100548.44;;;3.15;100.00
54978;BME280;40873;47.522;19.106;2023-11-19T10:31:31;100553.56;;;3.18;100.00
54978;BME280;40873;47.522;19.106;2023-11-19T10:33:58;100548.81;;;3.32;100.00
54978;BME280;40873;47.522;19.106;2023-11-19T10:36:40;100548.22;;;3.22;100.00
54978;BME280;40873;47.522;19.106;2023-11-19T10:39:07;100560.91;;;3.36;100.00
54978;BME280;40873;47.522;19.106;2023-11-19T10:41:36;100559.78;;;3.45;100.00
54978;BME280;40873;47.522;19.106;2023-11-19T10:44:03;100554.31;;;3.54;100.00
54978;BME280;40873;47.522;19.106;2023-11-19T10:46:40;100548.16;;;3.56;100.00
54978;BME280;40873;47.522;19.106;2023-11-19T10:49:09;100558.38;;;3.64;100.00
54978;BME280;40873;47.522;19.106;2023-11-19T10:51:36;100547.81;;;3.69;100.00
54978;BME280;40873;47.522;19.106;2023-11-19T10:54:04;100545.16;;;3.70;100.00
54978;BME280;40873;47.522;19.106;2023-11-19T10:56:34;100538.91;;;3.76;100.00
54978;BME280;40873;47.522;19.106;2023-11-19T10:59:02;100530.19;;;3.77;100.00
54978;BME280;40873;47.522;19.106;2023-11-19T11:01:53;100511.94;;;3.75;100.00
54978;BME280;40873;47.522;19.106;2023-11-19T11:04:24;100511.06;;;3.75;100.00
54978;BME280;40873;47.522;19.106;2023-11-19T11:06:55;100507.44;;;3.80;100.00
54978;BME280;40873;47.522;19.106;2023-11-19T11:09:26;100491.69;;;3.83;100.00
54978;BME280;40873;47.522;19.106;2023-11-19T11:11:55;100490.69;;;3.88;100.00
54978;BME280;40873;47.522;19.106;2023-11-19T11:14:27;100484.97;;;3.75;100.00
54978;BME280;40873;47.522;19.106;2023-11-19T11:16:56;100489.75;;;3.90;100.00
54978;BME280;40873;47.522;19.106;2023-11-19T11:19:23;100480.88;;;3.96;100.00
54978;BME280;40873;47.522;19.106;2023-11-19T11:21:52;100469.91;;;4.12;100.00
54978;BME280;40873;47.522;19.106;2023-11-19T11:38:28;100476.84;;;3.85;100.00
54978;BME280;40873;47.522;19.106;2023-11-19T11:41:29;100474.00;;;3.93;100.00
54978;BME280;40873;47.522;19.106;2023-11-19T11:43:58;100470.22;;;3.74;100.00
54978;BME280;40873;47.522;19.106;2023-11-19T11:49:05;100450.72;;;3.57;100.00
54978;BME280;40873;47.522;19.106;2023-11-19T11:57:08;100453.97;;;3.94;100.00
54978;BME280;40873;47.522;19.106;2023-11-19T11:59:47;100448.44;;;4.03;100.00
54978;BME280;40873;47.522;19.106;2023-11-19T12:02:21;100440.88;;;4.22;100.00
54978;BME280;40873;47.522;19.106;2023-11-19T12:04:50;100432.53;;;4.37;100.00
54978;BME280;40873;47.522;19.106;2023-11-19T12:07:24;100415.47;;;4.52;100.00
54978;BME280;40873;47.522;19.106;2023-11-19T12:09:53;100413.03;;;4.47;100.00
54978;BME280;40873;47.522;19.106;2023-11-19T12:12:27;100413.13;;;4.44;100.00
54978;BME280;40873;47.522;19.106;2023-11-19T12:15:07;100401.81;;;4.45;100.00
54978;BME280;40873;47.522;19.106;2023-11-19T12:17:46;100409.09;;;4.35;100.00
54978;BME280;40873;47.522;19.106;2023-11-19T12:20:25;100406.53;;;4.59;100.00
54978;BME280;40873;47.522;19.106;2023-11-19T12:22:55;100407.44;;;4.58;100.00
54978;BME280;40873;47.522;19.106;2023-11-19T12:25:22;100385.03;;;4.76;100.00
54978;BME280;40873;47.522;19.106;2023-11-19T12:27:51;100386.22;;;4.42;100.00
54978;BME280;40873;47.522;19.106;2023-11-19T12:30:23;100377.53;;;4.66;100.00
54978;BME280;40873;47.522;19.106;2023-11-19T12:32:51;100372.44;;;4.37;100.00
54978;BME280;40873;47.522;19.106;2023-11-19T12:35:21;100371.25;;;4.47;100.00
54978;BME280;40873;47.522;19.106;2023-11-19T12:37:49;100372.53;;;4.60;100.00
54978;BME280;40873;47.522;19.106;2023-11-19T12:40:23;100369.56;;;4.20;100.00
54978;BME280;40873;47.522;19.106;2023-11-19T12:42:52;100359.00;;;4.23;100.00
54978;BME280;40873;47.522;19.106;2023-11-19T12:45:20;100359.56;;;4.32;100.00
54978;BME280;40873;47.522;19.106;2023-11-19T12:47:50;100360.22;;;4.39;100.00
54978;BME280;40873;47.522;19.106;2023-11-19T12:50:19;100350.28;;;4.49;100.00
54978;BME280;40873;47.522;19.106;2023-11-19T12:52:56;100346.19;;;4.42;100.00
54978;BME280;40873;47.522;19.106;2023-11-19T12:55:26;100340.09;;;4.41;100.00
54978;BME280;40873;47.522;19.106;2023-11-19T12:57:55;100346.53;;;4.56;100.00
54978;BME280;40873;47.522;19.106;2023-11-19T13:00:24;100329.00;;;4.59;100.00
54978;BME280;40873;47.522;19.106;2023-11-19T13:02:54;100313.94;;;4.43;100.00
54978;BME280;40873;47.522;19.106;2023-11-19T13:05:32;100320.53;;;4.53;100.00
54978;BME280;40873;47.522;19.106;2023-11-19T13:08:05;100324.31;;;4.44;100.00
54978;BME280;40873;47.522;19.106;2023-11-19T13:10:34;100331.91;;;4.27;100.00
54978;BME280;40873;47.522;19.106;2023-11-19T13:13:07;100325.56;;;4.34;100.00